sensor_id;sensor_type;location;lat;lon;timestamp;pressure;altitude;pressure_sealevel;temperature;humidity
46379;BME280;32084;42.254;22.744;2022-10-04T00:03:35;95501.84;;;13.08;70.12
46379;BME280;32084;42.254;22.744;2022-10-04T00:06:02;95499.66;;;13.28;69.47
46379;BME280;32084;42.254;22.744;2022-10-04T00:09:04;95498.84;;;13.36;69.25
46379;BME280;32084;42.254;22.744;2022-10-04T00:13:49;95502.69;;;13.41;68.69
46379;BME280;32084;42.254;22.744;2022-10-04T00:16:21;95508.25;;;13.40;68.90
46379;BME280;32084;42.254;22.744;2022-10-04T00:18:53;95501.19;;;13.39;69.06
46379;BME280;32084;42.254;22.744;2022-10-04T00:21:24;95493.97;;;13.39;69.15
46379;BME280;32084;42.254;22.744;2022-10-04T00:24:18;95493.63;;;13.34;69.61
46379;BME280;32084;42.254;22.744;2022-10-04T00:29:33;95491.09;;;13.16;70.49
46379;BME280;32084;42.254;22.744;2022-10-04T00:37:01;95485.38;;;13.27;68.93
46379;BME280;32084;42.254;22.744;2022-10-04T00:46:48;95486.03;;;13.29;69.17
46379;BME280;32084;42.254;22.744;2022-10-04T00:49:16;95478.53;;;13.33;68.87
46379;BME280;32084;42.254;22.744;2022-10-04T00:51:47;95480.53;;;13.31;69.22
46379;BME280;32084;42.254;22.744;2022-10-04T00:54:17;95475.66;;;13.10;70.11
46379;BME280;32084;42.254;22.744;2022-10-04T01:01:54;95473.66;;;13.37;69.49
46379;BME280;32084;42.254;22.744;2022-10-04T01:07:02;95477.84;;;13.23;70.04
46379;BME280;32084;42.254;22.744;2022-10-04T01:09:33;95478.88;;;13.05;71.44
46379;BME280;32084;42.254;22.744;2022-10-04T01:12:03;95476.16;;;13.14;70.62
46379;BME280;32084;42.254;22.744;2022-10-04T01:14:34;95488.41;;;13.08;70.75
46379;BME280;32084;42.254;22.744;2022-10-04T01:17:03;95480.53;;;13.23;70.06
46379;BME280;32084;42.254;22.744;2022-10-04T01:19:30;95481.00;;;13.18;69.96
46379;BME280;32084;42.254;22.744;2022-10-04T01:24:32;95483.38;;;13.21;70.60
46379;BME280;32084;42.254;22.744;2022-10-04T01:26:59;95470.16;;;13.03;71.03
46379;BME280;32084;42.254;22.744;2022-10-04T01:29:26;95476.66;;;13.01;70.60
46379;BME280;32084;42.254;22.744;2022-10-04T01:31:57;95474.16;;;12.99;70.85
46379;BME280;32084;42.254;22.744;2022-10-04T01:34:24;95476.50;;;12.86;71.25
46379;BME280;32084;42.254;22.744;2022-10-04T01:36:52;95475.34;;;12.88;71.34
46379;BME280;32084;42.254;22.744;2022-10-04T01:39:20;95464.25;;;12.92;71.26
46379;BME280;32084;42.254;22.744;2022-10-04T01:44:38;95466.78;;;12.93;70.58
46379;BME280;32084;42.254;22.744;2022-10-04T01:47:26;95459.91;;;12.91;70.11
46379;BME280;32084;42.254;22.744;2022-10-04T01:49:56;95458.06;;;12.91;69.82
46379;BME280;32084;42.254;22.744;2022-10-04T01:55:06;95457.56;;;12.71;70.60
46379;BME280;32084;42.254;22.744;2022-10-04T01:57:36;95456.72;;;12.70;69.48
46379;BME280;32084;42.254;22.744;2022-10-04T02:00:07;95458.56;;;12.62;71.09
46379;BME280;32084;42.254;22.744;2022-10-04T02:02:42;95457.69;;;12.61;70.38
46379;BME280;32084;42.254;22.744;2022-10-04T02:05:11;95462.41;;;12.67;69.96
46379;BME280;32084;42.254;22.744;2022-10-04T02:07:38;95464.59;;;12.64;69.62
46379;BME280;32084;42.254;22.744;2022-10-04T02:10:08;95463.06;;;12.61;70.13
46379;BME280;32084;42.254;22.744;2022-10-04T02:12:35;95460.53;;;12.52;70.36
46379;BME280;32084;42.254;22.744;2022-10-04T02:15:05;95463.22;;;12.35;70.90
46379;BME280;32084;42.254;22.744;2022-10-04T02:17:32;95457.00;;;12.35;69.78
46379;BME280;32084;42.254;22.744;2022-10-04T02:20:07;95463.16;;;12.19;70.59
46379;BME280;32084;42.254;22.744;2022-10-04T02:22:35;95462.84;;;12.22;69.79
46379;BME280;32084;42.254;22.744;2022-10-04T02:25:01;95463.00;;;12.28;68.59
46379;BME280;32084;42.254;22.744;2022-10-04T02:27:28;95469.22;;;12.29;67.78
46379;BME280;32084;42.254;22.744;2022-10-04T02:30:03;95472.41;;;12.24;67.76
46379;BME280;32084;42.254;22.744;2022-10-04T02:32:30;95480.06;;;12.19;68.29
46379;BME280;32084;42.254;22.744;2022-10-04T02:35:16;95472.34;;;12.08;69.03
46379;BME280;32084;42.254;22.744;2022-10-04T02:37:43;95476.97;;;11.89;70.17
46379;BME280;32084;42.254;22.744;2022-10-04T02:40:14;95476.06;;;11.81;69.96
46379;BME280;32084;42.254;22.744;2022-10-04T02:42:57;95480.53;;;11.72;69.90
46379;BME280;32084;42.254;22.744;2022-10-04T02:45:28;95476.72;;;11.75;69.76
46379;BME280;32084;42.254;22.744;2022-10-04T02:48:03;95481.84;;;11.68;70.45
46379;BME280;32084;42.254;22.744;2022-10-04T02:50:34;95478.88;;;11.71;69.43
46379;BME280;32084;42.254;22.744;2022-10-04T02:53:11;95487.84;;;11.62;70.03
46379;BME280;32084;42.254;22.744;2022-10-04T02:55:41;95495.59;;;11.65;69.74
46379;BME280;32084;42.254;22.744;2022-10-04T02:58:08;95495.47;;;11.75;67.95
46379;BME280;32084;42.254;22.744;2022-10-04T03:00:43;95486.16;;;11.61;69.43
46379;BME280;32084;42.254;22.744;2022-10-04T03:05:52;95498.56;;;11.62;68.10
46379;BME280;32084;42.254;22.744;2022-10-04T03:08:20;95497.06;;;11.59;67.82
46379;BME280;32084;42.254;22.744;2022-10-04T03:10:47;95492.84;;;11.57;68.20
46379;BME280;32084;42.254;22.744;2022-10-04T03:13:15;95507.34;;;11.46;68.14
46379;BME280;32084;42.254;22.744;2022-10-04T03:15:45;95497.78;;;11.43;68.65
46379;BME280;32084;42.254;22.744;2022-10-04T03:18:12;95491.63;;;11.51;68.21
46379;BME280;32084;42.254;22.744;2022-10-04T03:20:39;95488.28;;;11.49;68.57
46379;BME280;32084;42.254;22.744;2022-10-04T03:23:06;95486.00;;;11.36;68.49
46379;BME280;32084;42.254;22.744;2022-10-04T03:28:14;95497.16;;;11.23;67.86
46379;BME280;32084;42.254;22.744;2022-10-04T03:30:42;95511.81;;;11.37;66.74
46379;BME280;32084;42.254;22.744;2022-10-04T03:33:13;95516.53;;;11.43;67.37
46379;BME280;32084;42.254;22.744;2022-10-04T03:35:40;95519.06;;;11.45;67.78
46379;BME280;32084;42.254;22.744;2022-10-04T03:38:07;95522.22;;;11.40;67.45
46379;BME280;32084;42.254;22.744;2022-10-04T03:40:35;95515.84;;;11.41;67.84
46379;BME280;32084;42.254;22.744;2022-10-04T03:43:02;95511.44;;;11.32;68.07
46379;BME280;32084;42.254;22.744;2022-10-04T03:45:30;95515.91;;;11.23;68.29
46379;BME280;32084;42.254;22.744;2022-10-04T03:48:02;95515.00;;;11.14;68.09
46379;BME280;32084;42.254;22.744;2022-10-04T03:50:31;95515.13;;;11.13;67.77
46379;BME280;32084;42.254;22.744;2022-10-04T03:53:00;95527.63;;;11.04;67.56
46379;BME280;32084;42.254;22.744;2022-10-04T03:55:33;95528.66;;;11.11;67.30
46379;BME280;32084;42.254;22.744;2022-10-04T03:57:59;95527.31;;;11.07;68.27
46379;BME280;32084;42.254;22.744;2022-10-04T04:00:26;95535.63;;;11.22;67.32
46379;BME280;32084;42.254;22.744;2022-10-04T04:03:02;95525.41;;;11.18;68.04
46379;BME280;32084;42.254;22.744;2022-10-04T04:10:38;95531.28;;;11.03;67.19
46379;BME280;32084;42.254;22.744;2022-10-04T04:15:35;95529.28;;;11.05;68.16
46379;BME280;32084;42.254;22.744;2022-10-04T04:18:03;95534.19;;;11.10;66.78
46379;BME280;32084;42.254;22.744;2022-10-04T04:20:31;95539.31;;;11.03;67.77
46379;BME280;32084;42.254;22.744;2022-10-04T04:23:33;95522.34;;;10.94;69.00
46379;BME280;32084;42.254;22.744;2022-10-04T04:25:52;95524.41;;;10.83;69.15
46379;BME280;32084;42.254;22.744;2022-10-04T04:30:45;95524.06;;;10.78;68.51
46379;BME280;32084;42.254;22.744;2022-10-04T04:33:18;95529.31;;;10.87;68.05
46379;BME280;32084;42.254;22.744;2022-10-04T04:35:46;95534.81;;;10.86;68.17
46379;BME280;32084;42.254;22.744;2022-10-04T04:38:15;95530.84;;;10.90;67.40
46379;BME280;32084;42.254;22.744;2022-10-04T04:40:42;95534.97;;;10.84;68.82
46379;BME280;32084;42.254;22.744;2022-10-04T04:43:08;95543.25;;;10.91;67.78
46379;BME280;32084;42.254;22.744;2022-10-04T04:45:38;95543.75;;;10.94;67.95
46379;BME280;32084;42.254;22.744;2022-10-04T04:48:04;95535.97;;;10.83;68.51
46379;BME280;32084;42.254;22.744;2022-10-04T04:50:33;95537.19;;;10.89;67.69
46379;BME280;32084;42.254;22.744;2022-10-04T04:55:33;95560.06;;;10.83;68.35
46379;BME280;32084;42.254;22.744;2022-10-04T04:58:02;95564.78;;;10.89;68.40
46379;BME280;32084;42.254;22.744;2022-10-04T05:00:30;95559.28;;;10.91;68.29
46379;BME280;32084;42.254;22.744;2022-10-04T05:02:59;95563.09;;;10.88;68.57
46379;BME280;32084;42.254;22.744;2022-10-04T05:05:26;95555.94;;;10.89;68.36
46379;BME280;32084;42.254;22.744;2022-10-04T05:13:20;95560.81;;;10.93;67.03
46379;BME280;32084;42.254;22.744;2022-10-04T05:15:47;95557.28;;;10.93;66.65
46379;BME280;32084;42.254;22.744;2022-10-04T05:18:26;95574.41;;;10.82;68.27
46379;BME280;32084;42.254;22.744;2022-10-04T05:20:54;95566.47;;;10.72;67.98
46379;BME280;32084;42.254;22.744;2022-10-04T05:23:21;95573.03;;;10.78;68.34
46379;BME280;32084;42.254;22.744;2022-10-04T05:25:47;95565.22;;;10.85;68.30
46379;BME280;32084;42.254;22.744;2022-10-04T05:28:14;95572.34;;;10.94;67.77
46379;BME280;32084;42.254;22.744;2022-10-04T05:33:23;95581.75;;;10.98;69.17
46379;BME280;32084;42.254;22.744;2022-10-04T05:38:39;95589.47;;;11.01;69.60
46379;BME280;32084;42.254;22.744;2022-10-04T05:41:12;95598.63;;;11.17;68.61
46379;BME280;32084;42.254;22.744;2022-10-04T05:43:46;95591.28;;;11.37;68.63
46379;BME280;32084;42.254;22.744;2022-10-04T05:48:42;95607.13;;;11.30;69.44
46379;BME280;32084;42.254;22.744;2022-10-04T05:51:28;95602.75;;;11.47;69.07
46379;BME280;32084;42.254;22.744;2022-10-04T05:54:01;95606.66;;;11.79;67.75
46379;BME280;32084;42.254;22.744;2022-10-04T05:59:49;95622.22;;;12.01;67.88
46379;BME280;32084;42.254;22.744;2022-10-04T06:01:56;95613.66;;;11.98;68.62
46379;BME280;32084;42.254;22.744;2022-10-04T06:12:07;95619.66;;;11.73;70.04
46379;BME280;32084;42.254;22.744;2022-10-04T06:14:54;95624.00;;;11.93;69.47
46379;BME280;32084;42.254;22.744;2022-10-04T06:17:27;95634.47;;;12.04;69.04
46379;BME280;32084;42.254;22.744;2022-10-04T06:22:23;95633.63;;;11.85;69.93
46379;BME280;32084;42.254;22.744;2022-10-04T06:25:09;95632.81;;;12.03;69.87
46379;BME280;32084;42.254;22.744;2022-10-04T06:27:39;95639.19;;;12.44;69.45
46379;BME280;32084;42.254;22.744;2022-10-04T06:30:17;95632.41;;;12.58;69.83
46379;BME280;32084;42.254;22.744;2022-10-04T06:35:20;95641.16;;;12.68;69.02
46379;BME280;32084;42.254;22.744;2022-10-04T07:03:46;95650.75;;;14.68;63.69
46379;BME280;32084;42.254;22.744;2022-10-04T07:06:19;95645.75;;;14.96;63.59
46379;BME280;32084;42.254;22.744;2022-10-04T07:08:49;95652.00;;;14.97;62.77
46379;BME280;32084;42.254;22.744;2022-10-04T07:11:24;95655.91;;;14.86;63.47
46379;BME280;32084;42.254;22.744;2022-10-04T07:13:53;95649.97;;;14.91;63.29
46379;BME280;32084;42.254;22.744;2022-10-04T07:21:52;95663.59;;;14.97;63.10
46379;BME280;32084;42.254;22.744;2022-10-04T07:24:23;95659.38;;;15.26;62.60
46379;BME280;32084;42.254;22.744;2022-10-04T07:26:51;95667.91;;;15.38;61.62
46379;BME280;32084;42.254;22.744;2022-10-04T07:29:19;95669.09;;;15.35;63.19
46379;BME280;32084;42.254;22.744;2022-10-04T07:32:30;95672.78;;;15.42;62.64
46379;BME280;32084;42.254;22.744;2022-10-04T07:37:10;95678.81;;;15.45;61.85
46379;BME280;32084;42.254;22.744;2022-10-04T07:39:39;95680.31;;;15.70;60.41
46379;BME280;32084;42.254;22.744;2022-10-04T07:42:19;95674.41;;;15.98;58.67
46379;BME280;32084;42.254;22.744;2022-10-04T07:44:53;95684.66;;;16.17;58.54
46379;BME280;32084;42.254;22.744;2022-10-04T07:47:22;95684.00;;;16.15;57.64
46379;BME280;32084;42.254;22.744;2022-10-04T07:49:52;95681.06;;;15.87;57.72
46379;BME280;32084;42.254;22.744;2022-10-04T07:52:23;95679.34;;;15.63;58.42
46379;BME280;32084;42.254;22.744;2022-10-04T08:07:48;95669.50;;;17.93;51.04
46379;BME280;32084;42.254;22.744;2022-10-04T08:17:46;95668.72;;;18.28;48.35
46379;BME280;32084;42.254;22.744;2022-10-04T08:25:27;95671.84;;;20.44;44.77
46379;BME280;32084;42.254;22.744;2022-10-04T08:28:02;95672.81;;;22.76;39.85
46379;BME280;32084;42.254;22.744;2022-10-04T08:33:55;95686.78;;;23.60;37.21
46379;BME280;32084;42.254;22.744;2022-10-04T08:39:00;95661.59;;;19.18;44.18
46379;BME280;32084;42.254;22.744;2022-10-04T08:52:46;95664.44;;;16.66;48.68
46379;BME280;32084;42.254;22.744;2022-10-04T09:19:16;95670.75;;;16.44;49.04
46379;BME280;32084;42.254;22.744;2022-10-04T09:53:40;95661.75;;;16.66;51.39
46379;BME280;32084;42.254;22.744;2022-10-04T09:58:57;95661.28;;;16.92;49.32
46379;BME280;32084;42.254;22.744;2022-10-04T10:09:25;95667.13;;;16.66;47.32
46379;BME280;32084;42.254;22.744;2022-10-04T10:12:36;95655.50;;;16.66;47.57
46379;BME280;32084;42.254;22.744;2022-10-04T10:18:15;95650.28;;;16.79;49.59
46379;BME280;32084;42.254;22.744;2022-10-04T10:26:58;95655.31;;;16.97;46.58
46379;BME280;32084;42.254;22.744;2022-10-04T10:32:07;95652.91;;;16.87;48.13
46379;BME280;32084;42.254;22.744;2022-10-04T10:52:26;95657.75;;;17.65;47.34
46379;BME280;32084;42.254;22.744;2022-10-04T11:02:59;95650.19;;;17.60;47.63
46379;BME280;32084;42.254;22.744;2022-10-04T11:30:24;95662.00;;;17.37;47.79
46379;BME280;32084;42.254;22.744;2022-10-04T11:38:09;95650.16;;;17.17;46.56
46379;BME280;32084;42.254;22.744;2022-10-04T11:56:01;95658.81;;;17.12;47.43
46379;BME280;32084;42.254;22.744;2022-10-04T11:58:57;95663.69;;;17.17;46.07
46379;BME280;32084;42.254;22.744;2022-10-04T12:18:17;95665.44;;;17.25;45.70
46379;BME280;32084;42.254;22.744;2022-10-04T12:25:46;95664.94;;;17.36;45.71
46379;BME280;32084;42.254;22.744;2022-10-04T12:31:33;95657.16;;;17.48;45.61
46379;BME280;32084;42.254;22.744;2022-10-04T12:45:15;95654.31;;;17.34;46.93
46379;BME280;32084;42.254;22.744;2022-10-04T12:52:26;95654.81;;;17.23;48.21
46379;BME280;32084;42.254;22.744;2022-10-04T12:55:07;95663.75;;;17.24;47.21
46379;BME280;32084;42.254;22.744;2022-10-04T13:21:13;95651.66;;;17.41;47.21
46379;BME280;32084;42.254;22.744;2022-10-04T13:52:53;95677.97;;;16.96;50.33
46379;BME280;32084;42.254;22.744;2022-10-04T14:00:55;95677.38;;;17.01;49.45
46379;BME280;32084;42.254;22.744;2022-10-04T14:27:41;95705.22;;;16.86;51.19
46379;BME280;32084;42.254;22.744;2022-10-04T14:31:14;95709.16;;;16.84;49.47
46379;BME280;32084;42.254;22.744;2022-10-04T15:01:32;95741.50;;;16.39;49.94
46379;BME280;32084;42.254;22.744;2022-10-04T15:17:24;95758.28;;;16.26;49.87
46379;BME280;32084;42.254;22.744;2022-10-04T15:22:24;95772.31;;;16.22;49.98
46379;BME280;32084;42.254;22.744;2022-10-04T15:24:52;95767.00;;;16.13;50.00
46379;BME280;32084;42.254;22.744;2022-10-04T15:40:29;95780.72;;;15.80;51.41
46379;BME280;32084;42.254;22.744;2022-10-04T15:50:52;95786.22;;;15.56;53.05
46379;BME280;32084;42.254;22.744;2022-10-04T16:12:21;95811.94;;;15.27;55.81
46379;BME280;32084;42.254;22.744;2022-10-04T16:17:42;95812.31;;;15.16;55.86
46379;BME280;32084;42.254;22.744;2022-10-04T16:20:11;95817.88;;;15.06;56.68
46379;BME280;32084;42.254;22.744;2022-10-04T16:25:34;95826.50;;;14.93;57.51
46379;BME280;32084;42.254;22.744;2022-10-04T16:30:29;95834.59;;;14.93;58.34
46379;BME280;32084;42.254;22.744;2022-10-04T16:33:12;95834.94;;;14.82;58.71
46379;BME280;32084;42.254;22.744;2022-10-04T16:35:46;95845.06;;;14.80;58.15
46379;BME280;32084;42.254;22.744;2022-10-04T16:38:22;95845.06;;;14.80;58.69
46379;BME280;32084;42.254;22.744;2022-10-04T16:53:48;95867.19;;;14.24;61.42
46379;BME280;32084;42.254;22.744;2022-10-04T16:56:20;95872.41;;;14.18;61.70
46379;BME280;32084;42.254;22.744;2022-10-04T16:59:21;95873.09;;;14.12;61.79
46379;BME280;32084;42.254;22.744;2022-10-04T17:11:55;95879.19;;;13.71;62.94
46379;BME280;32084;42.254;22.744;2022-10-04T17:14:33;95892.97;;;13.76;62.87
46379;BME280;32084;42.254;22.744;2022-10-04T17:17:07;95887.91;;;13.73;62.23
46379;BME280;32084;42.254;22.744;2022-10-04T17:19:41;95890.28;;;13.68;63.18
46379;BME280;32084;42.254;22.744;2022-10-04T17:25:00;95893.28;;;13.65;62.58
46379;BME280;32084;42.254;22.744;2022-10-04T17:30:18;95904.31;;;13.62;61.91
46379;BME280;32084;42.254;22.744;2022-10-04T17:43:36;95908.22;;;13.33;63.42
46379;BME280;32084;42.254;22.744;2022-10-04T17:48:52;95911.78;;;13.34;63.60
46379;BME280;32084;42.254;22.744;2022-10-04T17:51:43;95914.78;;;13.13;64.21
46379;BME280;32084;42.254;22.744;2022-10-04T17:54:30;95914.16;;;13.19;63.37
46379;BME280;32084;42.254;22.744;2022-10-04T17:57:38;95911.94;;;13.32;62.33
46379;BME280;32084;42.254;22.744;2022-10-04T18:05:33;95927.00;;;13.07;64.14
46379;BME280;32084;42.254;22.744;2022-10-04T18:10:37;95939.38;;;13.00;64.23
46379;BME280;32084;42.254;22.744;2022-10-04T18:13:10;95944.53;;;12.93;64.21
46379;BME280;32084;42.254;22.744;2022-10-04T18:15:40;95943.53;;;12.94;64.46
46379;BME280;32084;42.254;22.744;2022-10-04T18:18:16;95949.88;;;12.93;64.49
46379;BME280;32084;42.254;22.744;2022-10-04T18:23:22;95956.88;;;12.86;64.76
46379;BME280;32084;42.254;22.744;2022-10-04T18:25:50;95959.50;;;12.78;65.46
46379;BME280;32084;42.254;22.744;2022-10-04T18:28:20;95959.66;;;12.76;65.14
46379;BME280;32084;42.254;22.744;2022-10-04T18:33:16;95968.09;;;12.63;65.42
46379;BME280;32084;42.254;22.744;2022-10-04T18:36:19;95978.66;;;12.65;65.68
46379;BME280;32084;42.254;22.744;2022-10-04T18:38:37;95984.34;;;12.62;65.25
46379;BME280;32084;42.254;22.744;2022-10-04T18:43:49;95993.09;;;12.64;64.85
46379;BME280;32084;42.254;22.744;2022-10-04T18:46:19;95993.78;;;12.66;65.12
46379;BME280;32084;42.254;22.744;2022-10-04T18:48:59;95993.88;;;12.56;64.90
46379;BME280;32084;42.254;22.744;2022-10-04T18:51:37;96002.50;;;12.50;64.55
46379;BME280;32084;42.254;22.744;2022-10-04T18:57:26;95999.44;;;12.63;64.53
46379;BME280;32084;42.254;22.744;2022-10-04T18:59:33;96005.56;;;12.55;64.87
46379;BME280;32084;42.254;22.744;2022-10-04T19:02:31;96003.91;;;12.54;63.82
46379;BME280;32084;42.254;22.744;2022-10-04T19:17:45;96019.72;;;12.29;64.61
46379;BME280;32084;42.254;22.744;2022-10-04T19:20:24;96023.31;;;12.20;65.00
46379;BME280;32084;42.254;22.744;2022-10-04T19:23:03;96018.75;;;12.03;65.19
46379;BME280;32084;42.254;22.744;2022-10-04T19:28:01;96024.13;;;12.03;65.05
46379;BME280;32084;42.254;22.744;2022-10-04T19:33:18;96028.47;;;12.04;65.21
46379;BME280;32084;42.254;22.744;2022-10-04T19:38:29;96028.53;;;11.84;65.15
46379;BME280;32084;42.254;22.744;2022-10-04T19:48:42;96037.84;;;11.90;65.58
46379;BME280;32084;42.254;22.744;2022-10-04T19:51:24;96038.25;;;11.85;65.05
46379;BME280;32084;42.254;22.744;2022-10-04T19:53:53;96030.84;;;11.69;65.24
46379;BME280;32084;42.254;22.744;2022-10-04T19:56:25;96031.69;;;11.70;65.18
46379;BME280;32084;42.254;22.744;2022-10-04T20:01:20;96043.41;;;11.69;65.28
46379;BME280;32084;42.254;22.744;2022-10-04T20:03:48;96038.00;;;11.79;64.53
46379;BME280;32084;42.254;22.744;2022-10-04T20:06:35;96038.00;;;11.79;64.62
46379;BME280;32084;42.254;22.744;2022-10-04T20:11:48;96045.81;;;11.62;66.19
46379;BME280;32084;42.254;22.744;2022-10-04T20:19:58;96058.47;;;11.70;64.13
46379;BME280;32084;42.254;22.744;2022-10-04T20:27:01;96058.09;;;11.65;65.13
46379;BME280;32084;42.254;22.744;2022-10-04T20:32:03;96064.41;;;11.64;65.44
46379;BME280;32084;42.254;22.744;2022-10-04T20:34:30;96062.16;;;11.69;64.77
46379;BME280;32084;42.254;22.744;2022-10-04T20:36:58;96066.81;;;11.67;65.51
46379;BME280;32084;42.254;22.744;2022-10-04T20:44:51;96068.97;;;11.53;64.85
46379;BME280;32084;42.254;22.744;2022-10-04T20:49:52;96068.97;;;11.53;64.90
46379;BME280;32084;42.254;22.744;2022-10-04T20:52:22;96069.81;;;11.44;65.74
46379;BME280;32084;42.254;22.744;2022-10-04T20:54:51;96073.63;;;11.51;65.39
46379;BME280;32084;42.254;22.744;2022-10-04T20:57:18;96078.25;;;11.49;65.57
46379;BME280;32084;42.254;22.744;2022-10-04T20:59:46;96075.44;;;11.51;64.99
46379;BME280;32084;42.254;22.744;2022-10-04T21:02:15;96082.63;;;11.50;66.20
46379;BME280;32084;42.254;22.744;2022-10-04T21:04:42;96092.91;;;11.45;64.80
46379;BME280;32084;42.254;22.744;2022-10-04T21:07:16;96086.44;;;11.38;65.69
46379;BME280;32084;42.254;22.744;2022-10-04T21:09:42;96086.75;;;11.35;65.48
46379;BME280;32084;42.254;22.744;2022-10-04T21:17:42;96087.84;;;11.52;65.71
46379;BME280;32084;42.254;22.744;2022-10-04T21:20:12;96091.53;;;11.41;66.39
46379;BME280;32084;42.254;22.744;2022-10-04T21:22:40;96097.47;;;11.35;65.67
46379;BME280;32084;42.254;22.744;2022-10-04T21:25:25;96096.34;;;11.28;66.03
46379;BME280;32084;42.254;22.744;2022-10-04T21:27:52;96093.22;;;11.23;65.95
46379;BME280;32084;42.254;22.744;2022-10-04T21:30:18;96087.16;;;11.21;66.44
46379;BME280;32084;42.254;22.744;2022-10-04T21:32:44;96093.09;;;11.14;65.95
46379;BME280;32084;42.254;22.744;2022-10-04T21:35:11;96092.97;;;11.06;65.75
46379;BME280;32084;42.254;22.744;2022-10-04T21:37:37;96093.25;;;11.03;65.36
46379;BME280;32084;42.254;22.744;2022-10-04T21:40:03;96091.41;;;11.04;64.61
46379;BME280;32084;42.254;22.744;2022-10-04T21:42:30;96085.09;;;10.95;65.15
46379;BME280;32084;42.254;22.744;2022-10-04T21:44:56;96087.75;;;10.95;65.82
46379;BME280;32084;42.254;22.744;2022-10-04T21:47:22;96094.38;;;10.91;65.59
46379;BME280;32084;42.254;22.744;2022-10-04T21:49:48;96102.25;;;10.92;65.67
46379;BME280;32084;42.254;22.744;2022-10-04T21:52:15;96098.03;;;10.90;65.69
46379;BME280;32084;42.254;22.744;2022-10-04T21:54:44;96103.13;;;10.93;65.83
46379;BME280;32084;42.254;22.744;2022-10-04T21:57:10;96106.75;;;10.92;65.21
46379;BME280;32084;42.254;22.744;2022-10-04T21:59:36;96107.31;;;10.76;66.44
46379;BME280;32084;42.254;22.744;2022-10-04T22:02:02;96113.94;;;10.82;65.64
46379;BME280;32084;42.254;22.744;2022-10-04T22:04:29;96114.91;;;10.81;65.58
46379;BME280;32084;42.254;22.744;2022-10-04T22:06:55;96111.41;;;10.80;65.44
46379;BME280;32084;42.254;22.744;2022-10-04T22:09:21;96113.38;;;10.78;64.77
46379;BME280;32084;42.254;22.744;2022-10-04T22:11:47;96119.69;;;10.77;65.27
46379;BME280;32084;42.254;22.744;2022-10-04T22:14:13;96127.03;;;10.85;64.42
46379;BME280;32084;42.254;22.744;2022-10-04T22:16:39;96119.44;;;10.80;65.25
46379;BME280;32084;42.254;22.744;2022-10-04T22:19:05;96122.78;;;10.72;65.58
46379;BME280;32084;42.254;22.744;2022-10-04T22:21:31;96125.59;;;10.71;65.39
46379;BME280;32084;42.254;22.744;2022-10-04T22:23:57;96121.78;;;10.73;65.87
46379;BME280;32084;42.254;22.744;2022-10-04T22:26:24;96119.09;;;10.64;65.36
46379;BME280;32084;42.254;22.744;2022-10-04T22:28:51;96119.69;;;10.67;64.69
46379;BME280;32084;42.254;22.744;2022-10-04T22:31:27;96114.84;;;10.42;66.22
46379;BME280;32084;42.254;22.744;2022-10-04T22:33:53;96122.72;;;10.43;66.23
46379;BME280;32084;42.254;22.744;2022-10-04T22:36:25;96114.84;;;10.42;65.84
46379;BME280;32084;42.254;22.744;2022-10-04T22:41:37;96119.94;;;10.54;65.80
46379;BME280;32084;42.254;22.744;2022-10-04T22:44:10;96115.13;;;10.48;66.06
46379;BME280;32084;42.254;22.744;2022-10-04T22:46:38;96131.03;;;10.50;65.30
46379;BME280;32084;42.254;22.744;2022-10-04T22:49:12;96126.38;;;10.42;65.12
46379;BME280;32084;42.254;22.744;2022-10-04T22:51:39;96127.78;;;10.37;65.60
46379;BME280;32084;42.254;22.744;2022-10-04T22:54:09;96130.91;;;10.51;64.96
46379;BME280;32084;42.254;22.744;2022-10-04T22:56:35;96134.97;;;10.46;65.11
46379;BME280;32084;42.254;22.744;2022-10-04T22:59:01;96132.19;;;10.47;65.44
46379;BME280;32084;42.254;22.744;2022-10-04T23:01:27;96133.97;;;10.47;65.40
46379;BME280;32084;42.254;22.744;2022-10-04T23:03:53;96136.66;;;10.47;64.69
46379;BME280;32084;42.254;22.744;2022-10-04T23:06:21;96139.63;;;10.44;65.18
46379;BME280;32084;42.254;22.744;2022-10-04T23:08:47;96129.44;;;10.38;65.30
46379;BME280;32084;42.254;22.744;2022-10-04T23:11:13;96133.66;;;10.30;65.86
46379;BME280;32084;42.254;22.744;2022-10-04T23:13:39;96137.75;;;10.34;65.06
46379;BME280;32084;42.254;22.744;2022-10-04T23:16:08;96126.34;;;10.32;65.28
46379;BME280;32084;42.254;22.744;2022-10-04T23:18:35;96124.25;;;10.36;65.09
46379;BME280;32084;42.254;22.744;2022-10-04T23:21:01;96120.94;;;10.23;65.84
46379;BME280;32084;42.254;22.744;2022-10-04T23:23:28;96145.84;;;10.23;66.08
46379;BME280;32084;42.254;22.744;2022-10-04T23:25:55;96131.53;;;10.03;66.23
46379;BME280;32084;42.254;22.744;2022-10-04T23:28:21;96142.22;;;10.03;65.46
46379;BME280;32084;42.254;22.744;2022-10-04T23:30:54;96150.44;;;10.11;65.93
46379;BME280;32084;42.254;22.744;2022-10-04T23:33:24;96135.97;;;10.14;66.02
46379;BME280;32084;42.254;22.744;2022-10-04T23:35:51;96146.72;;;10.03;65.55
46379;BME280;32084;42.254;22.744;2022-10-04T23:38:19;96149.03;;;10.07;65.32
46379;BME280;32084;42.254;22.744;2022-10-04T23:40:46;96147.06;;;10.09;65.27
46379;BME280;32084;42.254;22.744;2022-10-04T23:43:14;96144.28;;;9.90;66.21
46379;BME280;32084;42.254;22.744;2022-10-04T23:45:41;96143.22;;;9.71;66.03
46379;BME280;32084;42.254;22.744;2022-10-04T23:48:10;96155.09;;;9.88;65.35
46379;BME280;32084;42.254;22.744;2022-10-04T23:50:37;96154.84;;;9.91;66.29
46379;BME280;32084;42.254;22.744;2022-10-04T23:53:05;96160.03;;;9.93;65.60
46379;BME280;32084;42.254;22.744;2022-10-04T23:55:35;96157.03;;;9.86;66.08
46379;BME280;32084;42.254;22.744;2022-10-04T23:58:05;96152.53;;;9.77;65.09
